EBLG Airport Information

Runway Information
Runway 05L Length 7677 ft width 148 ft
Elevation 637 ft Threshold 0 ft Heading 45
Runway 23R Length 7677 ft Width 148 ft
Elevation 585 ft Threshold 0 ft Heading 225
Runway 05R Length 10784 ft width 148 ft
Elevation 652 ft Threshold 774 ft Heading 45
Runway 23L Length 10784 ft Width 148 ft
Elevation 603 ft Threshold 0 ft Heading 225
Airport Frequencies
Type A/D Name APP Frequency 119.275 MHZ
Type ATIS Name ATIS Frequency 126.25 MHZ
Type CLD Name CLNC DEL Frequency 121.8 MHZ
Type GND Name GND Frequency 121.925 MHZ
Type TWR Name TWR Frequency 129.25 MHZ
Airport Navaids
Type NDB Name Liege Frequency 349 KHZ
Type VOR-DME Name Liege Frequency 115450 KHZ
Type NDB Name Liege Frequency 290 KHZ
Airport Weather Information & NOTAM
ADDS - METARS form results

(0219 UTC 13 June 2021)
Data provider http://aviationweather.gov/metar/data/
 
METAR text: EBLG 130150Z 31002KT CAVOK 10/08 Q1026 NOSIG
Conditions at: EBLG (BIERSET/LIEGE (C, BE) observed 0150 UTC 13 June 2021
Temperature: 10.0°C (50°F)
Dewpoint: 8.0°C (46°F) [RH = 87%]
Pressure (altimeter): 30.30 inches Hg (1026.0 mb)
Winds: from the NW (310 degrees) at 2 MPH (2 knots; 1.0 m/s)
Visibility: 6 or more miles (10+ km)
Ceiling: ceiling and visibility are OK
Clouds: unknown
Weather: no significant weather observed at this time

METAR text: EBLG 130120Z 31002KT CAVOK 10/09 Q1027 NOSIG
Conditions at: EBLG (BIERSET/LIEGE (C, BE) observed 0120 UTC 13 June 2021
Temperature: 10.0°C (50°F)
Dewpoint: 9.0°C (48°F) [RH = 93%]
Pressure (altimeter): 30.32 inches Hg (1027.0 mb)
Winds: from the NW (310 degrees) at 2 MPH (2 knots; 1.0 m/s)
Visibility: 6 or more miles (10+ km)
Ceiling: ceiling and visibility are OK
Clouds: unknown
Weather: no significant weather observed at this time

Forecast for: EBLG (BIERSET/LIEGE (C, BE)
Text: TAF EBLG 122304Z 1300/1406 01005KT 9999 FEW045
Forecast period: 0000 UTC 13 June 2021 to 0600 UTC 14 June 2021
Forecast type: FROM: standard forecast or significant change
Winds: from the N (10 degrees) at 6 MPH (5 knots; 2.6 m/s)
Visibility: 6 or more miles (10+ km)
Ceiling: at least 12,000 feet AGL
Clouds: few clouds at 4500 feet AGL
Weather: no significant weather forecast for this period
Text: PROB30 1302/1305 4000 BR MIFG
Forecast period: 0200 to 0500 UTC 13 June 2021
Forecast type: PROBABLE: 30 percent likelihood of the following during this time
Visibility: 2.49 miles (4.01 km)
Ceiling: unknown
Clouds: missing
Weather: BR MIFG  (mist, shallow fog)